Latest Coastal Weather Observations for Albion Park

IDN60701

Issued at 4:41 am EST Tuesday 16 July 2019 (issued every 10 minutes, with the page automatically refreshed every 10 minutes)

About coastal observations | Map of coastal stations | Coastal observations for NSW | Marine services | Other Formats
Station Details ID: 068241 Name: WOLLONGONG AIRPORT Lat: -34.56 Lon: 150.79 Height: 8.0 m
Data from the previous 72 hours. | See also: Recent months at Albion Park
Date/Time
EST
Wind Sea
Height
m
Swell Vis
km
Cloud Weather Temp
°C
Press
hPa
Rain since
9am
mm
Dir  Spd
kts
Gust
kts
Height
m
Period
s
Dir
16/04:30am W 20 24 - - - - 10 Clear - 12.0 1015.6 0.0
16/04:05am W 16 26 - - - - 10 - - 11.9 1015.9 0.0
16/04:00am W 17 26 - - - - 10 - - 11.9 1015.9 0.0
16/03:34am W 15 25 - - - - 10 - - 12.1 1015.9 0.0
16/03:30am W 15 22 - - - - 10 - - 12.1 1015.8 0.0
16/03:00am W 16 20 - - - - 10 - - 12.2 1016.0 0.0
16/02:30am W 22 28 - - - - 10 - - 12.1 1016.1 0.0
16/02:00am W 20 24 - - - - 10 - - 12.0 1016.2 0.0
16/01:30am W 14 20 - - - - 10 - - 11.7 1016.4 0.0
16/01:00am W 18 26 - - - - 10 - - 11.6 1016.3 0.0
16/12:30am W 18 21 - - - - 10 - - 11.8 1016.3 0.0
16/12:00am W 14 19 - - - - 10 - - 11.5 1016.9 0.0
 
Date/Time
EST
Wind Sea
Height
m
Swell Vis
km
Cloud Weather Temp
°C
Press
hPa
Rain since
9am
mm
Dir  Spd
kts
Gust
kts
Height
m
Period
s
Dir
15/11:30pm W 22 28 - - - - 10 - - 11.7 1016.8 0.0
15/11:00pm W 18 24 - - - - 10 - - 11.2 1017.1 0.0
15/10:30pm W 18 23 - - - - 10 - - 11.8 1017.2 0.0
15/10:00pm WSW 23 30 - - - - 10 - - 12.2 1017.2 0.0
15/09:30pm W 20 25 - - - - 10 - - 12.0 1017.2 0.0
15/09:00pm W 21 29 - - - - 10 - - 12.1 1017.3 0.0
15/08:30pm WSW 20 26 - - - - 10 - - 12.1 1017.5 0.0
15/08:00pm WSW 20 27 - - - - 10 - - 12.6 1017.7 0.0
15/07:30pm WSW 15 21 - - - - 10 - - 12.3 1018.0 0.0
15/07:00pm WSW 12 20 - - - - 10 - - 12.1 1018.1 0.0
15/06:49pm WSW 16 26 - - - - 10 - - 12.4 1018.1 0.0
15/06:30pm WSW 16 25 - - - - 10 - - 12.9 1017.9 0.0
15/06:11pm WSW 17 27 - - - - 10 - - 12.9 1017.7 0.0
15/06:00pm WSW 17 24 - - - - 10 - - 13.3 1017.5 0.0
15/05:51pm WSW 15 26 - - - - 10 - - 13.6 1017.5 0.0
15/05:30pm WSW 14 19 - - - - 10 - - 13.6 1017.5 0.0
15/05:00pm W 12 17 - - - - 10 - - 14.0 1016.8 0.0
15/04:30pm W 15 20 - - - - 10 - - 14.8 1016.7 0.0
15/04:00pm W 15 22 - - - - 10 - - 15.7 1016.4 0.0
15/03:30pm W 14 19 - - - - 10 - - 16.1 1016.2 0.0
15/03:00pm W 15 19 - - - - 10 - - 16.6 1016.1 0.0
15/02:30pm W 13 18 - - - - 10 - - 17.0 1016.0 0.0
15/02:00pm WSW 13 21 - - - - 10 - - 16.8 1015.7 0.0
15/01:30pm WSW 13 20 - - - - 10 Partly cloudy - 17.0 1015.8 0.0
15/01:00pm WSW 15 22 - - - - 10 Partly cloudy - 16.4 1016.0 0.0
15/12:30pm SW 12 20 - - - - 10 - - 16.6 1016.2 0.0
15/12:00pm WSW 15 22 - - - - 10 - - 16.1 1016.5 0.0
15/11:30am SW 13 21 - - - - 10 - - 15.6 1016.9 0.0
15/11:17am WSW 15 25 - - - - 10 Partly cloudy - 15.6 1016.9 0.0
15/11:00am SSW 14 24 - - - - 10 Partly cloudy - 15.3 1016.9 0.0
15/10:30am SW 13 25 - - - - 10 - - 15.0 1017.1 0.0
15/10:00am WSW 14 21 - - - - 10 Partly cloudy - 14.6 1016.8 0.0
15/09:42am WSW 15 25 - - - - 10 - - 14.4 1016.6 0.0
15/09:30am WSW 9 18 - - - - 10 - - 14.3 1016.3 0.0
15/09:00am WSW 6 17 - - - - 10 - - 13.8 1015.8 0.0
15/08:30am W 11 20 - - - - 10 - - 13.1 1015.3 0.0
15/08:00am W 10 16 - - - - 10 - - 12.4 1014.7 0.0
15/07:30am WNW 10 15 - - - - 10 - - 11.6 1014.1 0.0
15/07:16am WSW 16 26 - - - - 10 - - 12.1 1013.9 0.0
15/07:00am W 14 20 - - - - 10 - - 12.1 1013.5 0.0
15/06:31am WSW 16 26 - - - - 10 - - 12.3 1012.7 0.0
15/06:30am WSW 15 24 - - - - 10 - - 12.1 1012.6 0.0
15/06:00am WSW 19 25 - - - - 10 - - 12.1 1011.1 0.0
15/05:30am WSW 23 34 - - - - 10 - - 12.5 1010.2 0.0
15/05:00am W 23 35 - - - - 10 - - 12.2 1009.7 0.0
15/04:30am W 25 35 - - - - 10 - - 12.1 1008.8 0.0
15/04:00am WSW 27 38 - - - - 10 - - 12.4 1008.7 0.0
15/03:32am WSW 29 39 - - - - 10 - - 12.6 1008.3 0.0
15/03:30am WSW 30 39 - - - - 10 - - 12.7 1008.3 0.0
15/03:02am W 29 39 - - - - 10 - - 12.9 1008.4 0.0
15/03:00am W 29 38 - - - - 10 - - 12.8 1008.6 0.0
15/02:30am WSW 27 40 - - - - 10 - - 13.3 1009.2 0.0
15/02:00am WSW 27 43 - - - - 10 - - 13.2 1009.1 0.0
15/01:30am W 26 41 - - - - 10 - - 13.2 1008.6 0.0
15/01:00am W 28 40 - - - - 10 - - 13.1 1008.8 0.0
15/12:30am W 25 43 - - - - 10 Partly cloudy - 12.9 1009.3 0.0
15/12:00am W 28 40 - - - - 10 Cloudy - 13.4 1010.0 0.0
 
Date/Time
EST
Wind Sea
Height
m
Swell Vis
km
Cloud Weather Temp
°C
Press
hPa
Rain since
9am
mm
Dir  Spd
kts
Gust
kts
Height
m
Period
s
Dir
14/11:55pm W 26 40 - - - - 10 Partly cloudy - 13.4 1010.1 0.0
14/11:37pm W 19 30 - - - - 10 Partly cloudy - 13.3 1010.7 0.0
14/11:30pm W 18 24 - - - - 10 Partly cloudy - 13.1 1011.4 0.0
14/11:09pm W 16 26 - - - - 10 Cloudy - 13.3 1011.7 0.0
14/11:00pm W 15 23 - - - - 10 Cloudy - 12.9 1012.1 0.0
14/10:30pm WNW 11 19 - - - - 10 Partly cloudy - 12.9 1012.2 0.0
14/10:05pm W 15 28 - - - - 10 Partly cloudy - 12.7 1012.5 0.0
14/10:00pm W 12 18 - - - - 10 Partly cloudy - 12.4 1012.5 0.0
14/09:30pm WNW 15 21 - - - - 10 - - 12.4 1012.8 0.0
14/09:18pm WNW 16 27 - - - - 10 Partly cloudy - 12.4 1013.2 0.0
14/09:10pm WNW 14 25 - - - - 10 Partly cloudy - 12.3 1013.0 0.0
14/09:00pm W 10 22 - - - - 10 Partly cloudy - 12.2 1013.5 0.0
14/08:52pm WNW 10 22 - - - - 10 Partly cloudy - 12.3 1013.5 0.0
14/08:30pm NW 11 23 - - - - 10 Partly cloudy - 12.5 1013.7 0.0
14/08:00pm W 8 22 - - - - 10 Cloudy - 12.0 1013.8 0.0
14/07:30pm WNW 15 27 - - - - 10 Partly cloudy - 11.8 1013.6 0.0
14/07:00pm WNW 19 35 - - - - 10 - - 11.9 1013.0 0.0
14/06:30pm WNW 18 30 - - - - 10 Partly cloudy - 11.9 1013.3 0.0
14/06:26pm NW 14 30 - - - - 10 Partly cloudy - 12.1 1012.9 0.0
14/06:23pm NW 10 30 - - - - 10 Partly cloudy - 11.9 1013.5 0.0
14/06:00pm NW 11 21 - - - - 10 Mostly cloudy - 11.7 1013.6 0.0
14/05:44pm NW 15 29 - - - - 10 Partly cloudy - 11.8 1013.9 0.0
14/05:30pm NNW 11 26 - - - - 10 Partly cloudy - 11.2 1013.7 0.0
14/05:05pm WNW 15 29 - - - - 10 Partly cloudy - 11.3 1014.1 0.0
14/05:00pm WNW 15 24 - - - - 10 Partly cloudy - 11.0 1014.1 0.0
14/04:37pm NW 14 29 - - - - 10 - - 11.4 1014.2 0.0
14/04:33pm NW 11 26 - - - - 10 - - 11.5 1014.2 0.0
14/04:30pm NNW 8 16 - - - - 10 - - 11.6 1014.5 0.0
14/04:00pm WNW 16 29 - - - - 10 - - 11.7 1013.9 0.0
14/03:30pm WNW 18 35 - - - - 10 - - 12.6 1013.6 0.0
14/03:00pm WNW 17 31 - - - - 10 - - 13.1 1014.1 0.0
14/02:47pm W 24 35 - - - - 10 - - 12.9 1014.7 0.0
14/02:30pm W 31 41 - - - - 10 - - 12.8 1014.4 0.0
14/02:17pm W 23 49 - - - - 10 - - 13.0 1014.7 0.0
14/02:16pm W 21 49 - - - - 10 - - 13.0 1014.7 0.0
14/02:08pm W 16 48 - - - - 10 - - 13.1 1015.1 0.0
14/02:06pm W 16 34 - - - - 10 - - 13.2 1015.3 0.0
14/02:00pm W 21 35 - - - - 10 - - 13.5 1015.2 0.0
14/01:30pm W 17 28 - - - - 10 - - 13.4 1016.4 0.0
14/01:10pm W 16 26 - - - - 10 - - 13.4 1017.0 0.0
14/01:00pm WNW 16 25 - - - - 10 - - 13.8 1017.2 0.0
14/12:39pm W 18 28 - - - - 10 - - 13.9 1017.1 0.0
14/12:30pm W 23 28 - - - - 10 - - 13.5 1017.1 0.0
14/12:19pm WNW 19 29 - - - - 10 - - 13.9 1017.2 0.0
14/12:00pm W 20 29 - - - - 10 - - 14.0 1017.7 0.0
14/11:30am W 23 31 - - - - 10 - - 13.5 1018.3 0.0
14/11:25am WSW 20 30 - - - - 10 - - 13.3 1018.5 0.0
14/11:00am W 22 29 - - - - 10 - - 13.0 1019.0 0.0
14/10:36am W 21 31 - - - - 10 - - 12.4 1019.3 0.0
14/10:30am W 21 30 - - - - 10 - - 12.3 1019.7 0.0
14/10:02am W 17 29 - - - - 10 - - 11.9 1020.2 0.0
14/10:00am W 17 25 - - - - 10 - - 11.9 1020.3 0.0
14/09:30am W 15 25 - - - - 10 - - 10.9 1020.9 0.0
14/09:03am W 15 25 - - - - 10 - - 10.1 1021.1 0.0
14/09:00am W 14 19 - - - - 10 - - 10.1 1021.2 0.0
14/08:30am WSW 16 24 - - - - 10 - - 9.2 1020.9 0.0
14/08:10am WSW 15 25 - - - - 10 - - 8.8 1021.0 0.0
14/08:00am W 13 17 - - - - 10 - - 8.5 1021.0 0.0
14/07:30am W 14 21 - - - - 10 - - 8.0 1020.9 0.0
14/07:00am W 13 19 - - - - 10 - - 7.3 1020.8 0.0
14/06:30am WSW 14 20 - - - - 10 - - 7.9 1020.3 0.0
14/06:00am WSW 12 16 - - - - 10 - - 7.7 1020.3 0.0
14/05:30am WSW 15 18 - - - - 10 - - 7.8 1019.7 0.0
14/05:00am WSW 17 22 - - - - 10 - - 8.0 1019.6 0.0
14/04:30am W 20 25 - - - - 10 - - 8.3 1019.5 0.0
14/04:00am W 21 25 - - - - 10 - - 8.5 1019.7 0.0
14/03:30am W 17 22 - - - - 10 - - 8.3 1019.7 0.0
14/03:00am W 18 24 - - - - 10 - - 8.8 1019.6 0.0
14/02:30am W 16 23 - - - - 10 - - 8.6 1019.6 0.0
14/02:00am W 19 26 - - - - 10 - - 9.1 1019.6 0.0
14/01:30am WSW 14 19 - - - - 10 - - 9.2 1019.5 0.0
14/01:00am WSW 17 23 - - - - 10 - - 9.5 1019.6 0.0
14/12:43am WSW 18 28 - - - - 10 - - 9.4 1019.5 0.0
14/12:30am WSW 18 27 - - - - 10 - - 9.8 1019.3 0.0
14/12:07am WSW 22 32 - - - - 10 - - 9.9 1019.2 0.0
14/12:00am W 22 29 - - - - 10 - - 9.8 1019.1 0.0
 
Date/Time
EST
Wind Sea
Height
m
Swell Vis
km
Cloud Weather Temp
°C
Press
hPa
Rain since
9am
mm
Dir  Spd
kts
Gust
kts
Height
m
Period
s
Dir
13/11:32pm W 20 30 - - - - 10 - - 10.0 1018.8 0.0
13/11:30pm W 20 27 - - - - 10 - - 9.8 1018.8 0.0
13/11:02pm W 18 28 - - - - 10 - - 10.0 1018.9 0.0
13/11:00pm W 17 24 - - - - 10 - - 9.8 1019.0 0.0
13/10:48pm W 21 31 - - - - 10 - - 10.0 1018.9 0.0
13/10:30pm W 19 28 - - - - 10 - - 9.8 1018.8 0.0
13/10:00pm W 23 35 - - - - 10 - - 10.2 1018.3 0.0
13/09:31pm W 20 35 - - - - 10 - - 10.1 1018.0 0.0
13/09:30pm W 20 28 - - - - 10 - - 10.1 1018.0 0.0
13/09:05pm W 20 30 - - - - 10 - - 10.1 1017.9 0.0
13/09:00pm W 19 27 - - - - 10 - - 10.2 1017.8 0.0
13/08:37pm W 18 33 - - - - 10 - - 10.3 1017.7 0.0
13/08:30pm WSW 18 26 - - - - 10 - - 10.0 1017.7 0.0
13/08:01pm W 22 32 - - - - 10 - - 10.2 1017.5 0.0
13/08:00pm W 23 32 - - - - 10 - - 10.2 1017.4 0.0
13/07:38pm W 22 32 - - - - 10 - - 10.1 1017.0 0.0
13/07:30pm W 20 27 - - - - 10 - - 10.1 1017.0 0.0
13/07:00pm W 24 36 - - - - 10 - - 10.7 1016.4 0.0
13/06:30pm W 24 35 - - - - 10 - - 10.6 1015.8 0.0
13/06:00pm W 25 37 - - - - 10 - - 10.8 1015.3 0.0
13/05:42pm W 19 29 - - - - 10 - - 10.7 1015.3 0.0
13/05:30pm W 19 27 - - - - 10 - - 10.9 1014.9 0.0
13/05:10pm W 24 34 - - - - 10 - - 11.0 1014.6 0.0
13/05:00pm W 27 35 - - - - 10 - - 11.3 1014.2 0.0
13/04:30pm W 26 41 - - - - 10 - - 12.0 1013.7 0.0
13/04:00pm W 24 35 - - - - 10 - - 12.4 1013.4 0.0
13/03:30pm W 28 42 - - - - 10 - - 12.8 1012.4 0.0
13/03:00pm W 27 39 - - - - 10 - - 13.4 1012.0 0.0
13/02:30pm W 28 38 - - - - 10 - - 13.6 1011.6 0.0
13/02:00pm W 31 42 - - - - 10 - - 13.5 1011.4 0.0
13/01:47pm WSW 29 46 - - - - 10 - - 13.7 1011.5 0.0
13/01:45pm WSW 28 46 - - - - 10 - - 13.6 1011.4 0.0
13/01:30pm WSW 25 42 - - - - 10 - - 14.2 1011.1 0.0
13/01:27pm WSW 25 42 - - - - 10 - - 13.9 1010.9 0.0
13/01:24pm WSW 25 36 - - - - 10 - - 14.3 1010.9 0.0
13/01:00pm W 31 44 - - - - 10 - - 13.8 1009.5 0.0
13/12:30pm W 32 48 - - - - 10 - - 13.9 1009.9 0.0
13/12:00pm W 33 44 - - - - 10 - - 13.4 1010.0 0.0
13/11:30am W 30 45 - - - - 10 - - 13.2 1010.6 0.0
13/11:10am W 26 40 - - - - 10 - - 13.0 1010.4 0.0
13/11:06am W 29 41 - - - - 10 - - 13.2 1010.3 0.0
13/11:00am W 33 49 - - - - 10 - - 12.7 1010.0 0.0
13/10:30am W 32 43 - - - - 10 - - 12.5 1010.0 0.0
13/10:00am W 32 42 - - - - 10 - - 11.7 1010.3 0.0
13/09:30am W 28 43 - - - - 10 - - 11.6 1010.1 0.0
13/09:00am W 28 45 - - - - 10 - - 11.5 1008.6 0.0
13/08:30am W 32 45 - - - - 10 - - 11.2 1008.8 0.0
13/08:19am W 29 46 - - - - 10 - - 11.2 1008.9 0.0
13/08:00am W 24 34 - - - - 10 - - 10.9 1008.9 0.0
13/07:38am W 26 41 - - - - 10 - - 10.8 1008.9 0.0
13/07:30am W 20 31 - - - - 10 - - 10.7 1008.9 0.0
13/07:00am W 23 33 - - - - 10 - - 10.9 1008.9 0.0
13/06:32am WSW 20 30 - - - - 10 - - 10.9 1008.8 0.0
13/06:30am WSW 18 27 - - - - 10 - - 10.9 1008.8 0.0
13/06:11am W 17 30 - - - - 10 - - 11.4 1009.0 0.0
13/06:00am W 17 26 - - - - 10 - - 11.5 1008.6 0.0
13/05:30am WSW 21 31 - - - - 10 - - 11.9 1008.8 0.0
13/05:00am W 22 33 - - - - 10 - - 13.7 1007.7 0.0

Other formats

Comma delimited format used in spreadsheet applications
http://www.bom.gov.au/fwo/IDN60701/IDN60701.95748.axf

JavaScript Object Notation format (JSON) in row-major order
http://www.bom.gov.au/fwo/IDN60701/IDN60701.95748.json

Data quality

Most of these data are generated automatically and are frequently updated. Quality checks on data are not normally performed. It is possible for incorrect values to appear. Refer to information at About Latest Weather Observations and please check the disclaimer before using these data.